Time;durP1;ratioP1;P1;durP2;ratioP2;P2;SDS_P1;SDS_P2;PMS_P1;PMS_P2;Temp;Humidity;BMP_temperature;BMP_pressure;BME280_temperature;BME280_humidity;BME280_pressure;Samples;Min_cycle;Max_cycle;Signal;HPM_P1;HPM_P2
2023/10/08 00:01:11;;;;;;;;;;;10.00;99.90;;;;;;5052708;28;19917;-93
2023/10/08 00:03:37;;;;;;;;;;;9.90;99.90;;;;;;5048308;28;19908;-94
2023/10/08 00:06:14;;;;;;;;;;;9.80;99.90;;;;;;5039556;28;20284;-92
2023/10/08 00:08:40;;;;;;;;;;;9.70;99.90;;;;;;5056522;28;20332;-93
2023/10/08 00:11:06;;;;;;;;;;;9.80;99.90;;;;;;5040075;28;19916;-93
2023/10/08 00:13:39;;;;;;;;;;;9.80;99.90;;;;;;5053113;28;19934;-94
2023/10/08 00:16:15;;;;;;;;;;;9.60;99.90;;;;;;5029157;28;20288;-93
2023/10/08 00:18:48;;;;;;;;;;;9.70;99.90;;;;;;5051591;28;19912;-93
2023/10/08 00:21:19;;;;;;;;;;;9.60;99.90;;;;;;5020426;28;20326;-93
2023/10/08 00:23:56;;;;;;;;;;;9.60;99.90;;;;;;5046357;28;19909;-93
2023/10/08 00:26:27;;;;;;;;;;;9.60;99.90;;;;;;5051858;28;20376;-94
2023/10/08 00:28:56;;;;;;;;;;;9.60;99.90;;;;;;5045075;28;19909;-93
2023/10/08 00:31:25;;;;;;;;;;;9.60;99.90;;;;;;5047945;28;19909;-94
2023/10/08 00:33:51;;;;;;;;;;;9.50;99.90;;;;;;5052425;28;19963;-92
2023/10/08 00:36:18;;;;;;;;;;;9.60;99.90;;;;;;5051349;28;19909;-94
2023/10/08 00:38:44;;;;;;;;;;;9.70;99.90;;;;;;5050258;28;19919;-93
2023/10/08 00:41:14;;;;;;;;;;;9.60;99.90;;;;;;5051122;28;20353;-92
2023/10/08 00:43:39;;;;;;;;;;;9.50;99.90;;;;;;5039233;28;19916;-93
2023/10/08 00:46:11;;;;;;;;;;;9.60;99.90;;;;;;5027488;28;19919;-93
2023/10/08 00:48:36;;;;;;;;;;;9.70;99.90;;;;;;5025169;28;20393;-93
2023/10/08 00:53:48;;;;;;;;;;;9.60;99.90;;;;;;5043199;28;19955;-94
2023/10/08 00:56:18;;;;;;;;;;;9.70;99.90;;;;;;5014906;28;19967;-92
2023/10/08 00:58:46;;;;;;;;;;;9.60;99.90;;;;;;5041041;28;19966;-94
2023/10/08 01:01:12;;;;;;;;;;;9.60;99.90;;;;;;5035205;28;19916;-94
2023/10/08 01:03:44;;;;;;;;;;;9.60;99.90;;;;;;5042347;28;19908;-93
2023/10/08 01:06:11;;;;;;;;;;;9.60;99.90;;;;;;5045303;28;19913;-93
2023/10/08 01:08:36;;;;;;;;;;;9.50;99.90;;;;;;5045340;28;19913;-93
2023/10/08 01:11:16;;;;;;;;;;;9.50;99.90;;;;;;5049196;28;19915;-93
2023/10/08 01:13:45;;;;;;;;;;;9.50;99.90;;;;;;5050766;28;20416;-94
2023/10/08 01:16:11;;;;;;;;;;;9.50;99.90;;;;;;5050032;28;19947;-93
2023/10/08 01:18:36;;;;;;;;;;;9.50;99.90;;;;;;5048216;28;19904;-93
2023/10/08 01:21:08;;;;;;;;;;;9.50;99.90;;;;;;5033406;28;19952;-94
2023/10/08 01:23:34;;;;;;;;;;;9.40;99.90;;;;;;5051615;28;19909;-92
2023/10/08 01:26:11;;;;;;;;;;;9.50;99.90;;;;;;5041109;28;19978;-93
2023/10/08 01:28:37;;;;;;;;;;;9.50;99.90;;;;;;5020695;28;20303;-92
2023/10/08 01:31:04;;;;;;;;;;;9.40;99.90;;;;;;5028774;28;20000;-93
2023/10/08 01:33:37;;;;;;;;;;;9.40;99.90;;;;;;5047982;28;19908;-93
2023/10/08 01:36:04;;;;;;;;;;;9.40;99.90;;;;;;5051286;28;19923;-94
2023/10/08 01:38:30;;;;;;;;;;;9.40;99.90;;;;;;5052330;28;19927;-92
2023/10/08 01:40:56;;;;;;;;;;;9.40;99.90;;;;;;5054692;28;19913;-94
2023/10/08 01:43:22;;;;;;;;;;;9.40;99.90;;;;;;5048633;28;20775;-93
2023/10/08 01:45:52;;;;;;;;;;;9.30;99.90;;;;;;5048079;28;19909;-93
2023/10/08 01:48:27;;;;;;;;;;;9.30;99.90;;;;;;5057229;28;19927;-93
2023/10/08 01:50:58;;;;;;;;;;;9.40;99.90;;;;;;5048838;28;19949;-94
2023/10/08 01:53:24;;;;;;;;;;;9.30;99.90;;;;;;5048588;28;19917;-93
2023/10/08 01:55:49;;;;;;;;;;;9.30;99.90;;;;;;5054791;28;19916;-93
2023/10/08 01:58:16;;;;;;;;;;;9.20;99.90;;;;;;5055478;28;20007;-93
2023/10/08 02:00:42;;;;;;;;;;;9.30;99.90;;;;;;5052634;28;19955;-94
2023/10/08 02:03:07;;;;;;;;;;;9.20;99.90;;;;;;5050806;28;19976;-93
2023/10/08 02:05:34;;;;;;;;;;;9.30;99.90;;;;;;5053329;28;19920;-93
2023/10/08 02:08:00;;;;;;;;;;;9.30;99.90;;;;;;5051565;28;19913;-93
2023/10/08 02:10:26;;;;;;;;;;;9.10;99.90;;;;;;5054241;28;19913;-93
2023/10/08 02:12:51;;;;;;;;;;;9.00;99.90;;;;;;5057565;28;19908;-93
2023/10/08 02:15:17;;;;;;;;;;;8.90;99.90;;;;;;5054095;28;19913;-93
2023/10/08 02:17:43;;;;;;;;;;;9.00;99.90;;;;;;5053994;28;19909;-94
2023/10/08 02:20:09;;;;;;;;;;;9.00;99.90;;;;;;5039590;28;20415;-93
2023/10/08 02:22:35;;;;;;;;;;;9.00;99.90;;;;;;5031705;28;19924;-93
2023/10/08 02:25:02;;;;;;;;;;;9.10;99.90;;;;;;5042247;28;20281;-93
2023/10/08 02:27:27;;;;;;;;;;;9.20;99.90;;;;;;5053949;28;20250;-93
2023/10/08 02:29:54;;;;;;;;;;;9.10;99.90;;;;;;5054507;28;19963;-94
2023/10/08 02:32:22;;;;;;;;;;;9.10;99.90;;;;;;5053770;28;19909;-93
2023/10/08 02:34:48;;;;;;;;;;;9.10;99.90;;;;;;5046805;28;19967;-93
2023/10/08 02:37:15;;;;;;;;;;;9.10;99.90;;;;;;5051978;28;20444;-94
2023/10/08 02:39:40;;;;;;;;;;;9.10;99.90;;;;;;5049299;28;19909;-94
2023/10/08 02:42:10;;;;;;;;;;;9.10;99.90;;;;;;5049315;28;19916;-94
2023/10/08 02:44:41;;;;;;;;;;;9.00;99.90;;;;;;5041776;28;19912;-93
2023/10/08 02:47:11;;;;;;;;;;;9.10;99.90;;;;;;5050676;28;20242;-93
2023/10/08 02:49:40;;;;;;;;;;;9.10;99.90;;;;;;5053022;28;19997;-93
2023/10/08 02:52:06;;;;;;;;;;;9.00;99.90;;;;;;5053720;28;19916;-93
2023/10/08 02:54:32;;;;;;;;;;;8.90;99.90;;;;;;5052429;28;20812;-92
2023/10/08 02:56:58;;;;;;;;;;;9.00;99.90;;;;;;5054334;28;20245;-93
2023/10/08 02:59:28;;;;;;;;;;;9.00;99.90;;;;;;5053530;28;19916;-92
2023/10/08 03:01:55;;;;;;;;;;;8.90;99.90;;;;;;5050299;28;19963;-91
2023/10/08 03:04:22;;;;;;;;;;;8.90;99.90;;;;;;5049706;28;19912;-91
2023/10/08 03:06:54;;;;;;;;;;;8.90;99.90;;;;;;5051806;28;19931;-92
2023/10/08 03:09:23;;;;;;;;;;;8.90;99.90;;;;;;5052771;28;19991;-93
2023/10/08 03:11:49;;;;;;;;;;;8.70;99.90;;;;;;5049041;28;19963;-94
2023/10/08 03:14:21;;;;;;;;;;;8.70;99.90;;;;;;5047088;28;19916;-94
2023/10/08 03:16:48;;;;;;;;;;;8.70;99.90;;;;;;5052903;28;20008;-92
2023/10/08 03:19:18;;;;;;;;;;;8.70;99.90;;;;;;5054443;28;19905;-94
2023/10/08 03:21:50;;;;;;;;;;;8.70;99.90;;;;;;5057438;28;19924;-93
2023/10/08 03:24:37;;;;;;;;;;;8.60;99.90;;;;;;5053424;28;19912;-94
2023/10/08 03:27:06;;;;;;;;;;;8.50;99.90;;;;;;5035094;28;19944;-94
2023/10/08 03:29:32;;;;;;;;;;;8.40;99.90;;;;;;5050759;28;20396;-93
2023/10/08 03:31:58;;;;;;;;;;;8.40;99.90;;;;;;5039290;28;19917;-93
2023/10/08 03:34:28;;;;;;;;;;;8.40;99.90;;;;;;5025020;28;19913;-94
2023/10/08 03:36:59;;;;;;;;;;;8.40;99.90;;;;;;5048832;28;20034;-94
2023/10/08 03:39:41;;;;;;;;;;;8.40;99.90;;;;;;5044697;28;20357;-94
2023/10/08 03:42:09;;;;;;;;;;;8.40;99.90;;;;;;5052739;28;20389;-93
2023/10/08 03:44:37;;;;;;;;;;;8.40;99.90;;;;;;5049732;28;20005;-94
2023/10/08 03:47:10;;;;;;;;;;;8.40;99.90;;;;;;5054410;28;19920;-94
2023/10/08 03:49:41;;;;;;;;;;;8.40;99.90;;;;;;5050589;28;20382;-94
2023/10/08 03:52:07;;;;;;;;;;;8.30;99.90;;;;;;5051479;28;19999;-93
2023/10/08 03:54:35;;;;;;;;;;;8.30;99.90;;;;;;5052354;28;19997;-92
2023/10/08 03:57:04;;;;;;;;;;;8.30;99.90;;;;;;5047201;28;19944;-94
2023/10/08 04:01:59;;;;;;;;;;;8.30;99.90;;;;;;5049124;28;19927;-93
2023/10/08 04:04:48;;;;;;;;;;;8.40;99.90;;;;;;5047646;28;19943;-93
2023/10/08 04:12:44;;;;;;;;;;;8.20;99.90;;;;;;5044251;28;19913;-93
2023/10/08 04:15:12;;;;;;;;;;;8.30;99.90;;;;;;5046350;28;19963;-94
2023/10/08 04:17:45;;;;;;;;;;;8.30;99.90;;;;;;5042698;28;19909;-93
2023/10/08 04:23:01;;;;;;;;;;;8.40;99.90;;;;;;5052576;28;20384;-93
2023/10/08 04:25:30;;;;;;;;;;;8.30;99.90;;;;;;5052333;28;19995;-93
2023/10/08 04:27:59;;;;;;;;;;;8.30;99.90;;;;;;5051637;28;20011;-93
2023/10/08 04:30:32;;;;;;;;;;;8.30;99.90;;;;;;5038980;28;20409;-93
2023/10/08 04:32:59;;;;;;;;;;;8.30;99.90;;;;;;5052419;28;19924;-92
2023/10/08 04:35:26;;;;;;;;;;;8.20;99.90;;;;;;5044205;28;19991;-94
2023/10/08 04:37:53;;;;;;;;;;;8.30;99.90;;;;;;5047353;28;19909;-94
2023/10/08 04:40:22;;;;;;;;;;;8.30;99.90;;;;;;5051347;28;20011;-93
2023/10/08 04:42:48;;;;;;;;;;;8.20;99.90;;;;;;5046977;28;19923;-93
2023/10/08 04:45:13;;;;;;;;;;;8.20;99.90;;;;;;5021978;28;19909;-94
2023/10/08 04:47:42;;;;;;;;;;;8.30;99.90;;;;;;5022127;28;19917;-94
2023/10/08 04:50:16;;;;;;;;;;;8.20;99.90;;;;;;5042288;28;19916;-94
2023/10/08 04:52:58;;;;;;;;;;;8.10;99.90;;;;;;5033576;28;19916;-94
2023/10/08 04:55:28;;;;;;;;;;;8.10;99.90;;;;;;5034191;28;19928;-95
2023/10/08 04:57:55;;;;;;;;;;;8.00;99.90;;;;;;5046495;28;20262;-93
2023/10/08 05:00:40;;;;;;;;;;;8.00;99.90;;;;;;5030900;28;19992;-94
2023/10/08 05:03:13;;;;;;;;;;;8.00;99.90;;;;;;5028331;28;19928;-95
2023/10/08 05:05:55;;;;;;;;;;;8.00;99.90;;;;;;5029975;28;20258;-92
2023/10/08 05:08:44;;;;;;;;;;;7.90;99.90;;;;;;5022237;28;19909;-93
2023/10/08 05:11:24;;;;;;;;;;;7.90;99.90;;;;;;5027664;28;20011;-95
2023/10/08 05:14:01;;;;;;;;;;;7.80;99.90;;;;;;5027486;28;19910;-92
2023/10/08 05:16:36;;;;;;;;;;;7.80;99.90;;;;;;5031783;28;19913;-91
2023/10/08 05:19:37;;;;;;;;;;;7.80;99.90;;;;;;5015845;28;19956;-92
2023/10/08 05:22:43;;;;;;;;;;;7.80;99.90;;;;;;5030656;28;19924;-92
2023/10/08 05:41:51;;;;;;;;;;;7.60;99.90;;;;;;5018083;28;19916;-90
2023/10/08 05:57:14;;;;;;;;;;;7.60;99.90;;;;;;5019298;28;19909;-92
2023/10/08 05:59:52;;;;;;;;;;;7.60;99.90;;;;;;5034151;28;19905;-92
2023/10/08 06:02:28;;;;;;;;;;;7.60;99.90;;;;;;5026882;28;20361;-92
2023/10/08 06:08:10;;;;;;;;;;;7.60;99.90;;;;;;5034661;28;19909;-92
2023/10/08 06:13:55;;;;;;;;;;;7.50;99.90;;;;;;5033734;28;19920;-93
2023/10/08 06:16:05;;;;;;;;;;;7.50;99.90;;;;;;5026905;28;19909;-90
2023/10/08 06:18:31;;;;;;;;;;;7.50;99.90;;;;;;5029926;28;20391;-87
2023/10/08 06:21:11;;;;;;;;;;;7.40;99.90;;;;;;5027968;28;19963;-87
2023/10/08 06:23:37;;;;;;;;;;;7.40;99.90;;;;;;5030563;28;19935;-94
2023/10/08 06:28:35;;;;;;;;;;;7.40;99.90;;;;;;5026160;28;19910;-94
2023/10/08 06:31:01;;;;;;;;;;;7.40;99.90;;;;;;5031409;28;19915;-94
2023/10/08 06:33:33;;;;;;;;;;;7.50;99.90;;;;;;5032549;28;19916;-92
2023/10/08 06:36:02;;;;;;;;;;;7.50;99.90;;;;;;5032991;28;19916;-92
2023/10/08 06:38:34;;;;;;;;;;;7.50;99.90;;;;;;5037729;28;19932;-90
2023/10/08 06:41:00;;;;;;;;;;;7.60;99.90;;;;;;5026853;28;19967;-90
2023/10/08 06:43:26;;;;;;;;;;;7.60;99.90;;;;;;5028295;28;19960;-90
2023/10/08 06:45:57;;;;;;;;;;;7.70;99.90;;;;;;5032305;28;19964;-91
2023/10/08 06:48:23;;;;;;;;;;;7.70;99.90;;;;;;5031042;28;19917;-92
2023/10/08 06:50:50;;;;;;;;;;;7.80;99.90;;;;;;5030632;28;19913;-94
2023/10/08 06:53:18;;;;;;;;;;;7.90;99.90;;;;;;5026067;28;19963;-91
2023/10/08 06:55:44;;;;;;;;;;;8.00;99.90;;;;;;5036963;28;19967;-93
2023/10/08 06:58:11;;;;;;;;;;;8.00;99.90;;;;;;5033835;28;20012;-92
2023/10/08 07:00:40;;;;;;;;;;;8.20;99.90;;;;;;5032854;28;20361;-92
2023/10/08 07:03:10;;;;;;;;;;;8.30;99.90;;;;;;5029531;28;20294;-91
2023/10/08 07:05:36;;;;;;;;;;;8.50;99.90;;;;;;5031840;28;19913;-92
2023/10/08 07:08:06;;;;;;;;;;;8.70;99.90;;;;;;5031495;28;19916;-91
2023/10/08 07:10:34;;;;;;;;;;;8.90;99.90;;;;;;5029694;28;19918;-94
2023/10/08 07:13:02;;;;;;;;;;;9.10;99.90;;;;;;5022898;28;19971;-94
2023/10/08 07:15:29;;;;;;;;;;;9.20;99.90;;;;;;5033977;28;20281;-93
2023/10/08 07:17:56;;;;;;;;;;;9.30;99.90;;;;;;5027845;28;19919;-95
2023/10/08 07:20:22;;;;;;;;;;;9.60;99.90;;;;;;5030283;28;19909;-93
2023/10/08 07:22:54;;;;;;;;;;;9.70;99.90;;;;;;5035175;28;20012;-95
2023/10/08 07:25:22;;;;;;;;;;;9.80;99.90;;;;;;5043253;28;19962;-94
2023/10/08 07:27:48;;;;;;;;;;;10.00;99.90;;;;;;5030945;28;20695;-94
2023/10/08 07:30:26;;;;;;;;;;;10.10;99.90;;;;;;5033404;28;19944;-93
2023/10/08 07:32:54;;;;;;;;;;;10.30;99.90;;;;;;5032329;28;20278;-93
2023/10/08 07:37:46;;;;;;;;;;;10.60;99.90;;;;;;5028268;28;20518;-92
2023/10/08 07:40:13;;;;;;;;;;;10.80;99.90;;;;;;5017876;28;20251;-91
2023/10/08 07:42:38;;;;;;;;;;;10.90;99.90;;;;;;5023408;28;19925;-92
2023/10/08 07:45:04;;;;;;;;;;;11.00;99.90;;;;;;5034247;28;19905;-91
2023/10/08 07:47:30;;;;;;;;;;;11.20;99.90;;;;;;5043721;28;19968;-92
2023/10/08 07:49:55;;;;;;;;;;;11.30;99.90;;;;;;5053213;28;19920;-93
2023/10/08 07:52:21;;;;;;;;;;;11.40;99.90;;;;;;5054324;28;19908;-94
2023/10/08 07:54:47;;;;;;;;;;;11.20;99.90;;;;;;5031382;28;19909;-95
2023/10/08 07:57:17;;;;;;;;;;;11.00;99.90;;;;;;5048751;28;19954;-92
2023/10/08 07:59:55;;;;;;;;;;;10.90;99.90;;;;;;5046375;28;20008;-92
2023/10/08 08:02:23;;;;;;;;;;;11.00;99.90;;;;;;5050778;28;19923;-94
2023/10/08 08:04:53;;;;;;;;;;;10.90;99.90;;;;;;5051774;28;19927;-92
2023/10/08 08:07:19;;;;;;;;;;;11.10;99.90;;;;;;5053516;28;19919;-94
2023/10/08 08:09:50;;;;;;;;;;;11.10;99.90;;;;;;5056564;28;20337;-94
2023/10/08 08:12:22;;;;;;;;;;;11.00;99.90;;;;;;5072492;28;19908;-94
2023/10/08 08:14:48;;;;;;;;;;;10.90;99.90;;;;;;5050790;28;20361;-93
2023/10/08 08:17:17;;;;;;;;;;;11.10;99.90;;;;;;5033934;28;19947;-93
2023/10/08 08:19:49;;;;;;;;;;;11.40;99.90;;;;;;5042636;28;20336;-94
2023/10/08 08:22:21;;;;;;;;;;;11.80;99.90;;;;;;5052453;28;19939;-94
2023/10/08 08:24:54;;;;;;;;;;;12.10;99.90;;;;;;5050678;28;19912;-95
2023/10/08 08:27:31;;;;;;;;;;;12.20;99.90;;;;;;5050808;28;19944;-93
2023/10/08 08:30:01;;;;;;;;;;;12.40;99.90;;;;;;5051533;28;19915;-94
2023/10/08 08:32:28;;;;;;;;;;;12.70;99.90;;;;;;5033288;28;19958;-95
2023/10/08 08:34:53;;;;;;;;;;;12.90;99.90;;;;;;5033479;28;20346;-95
2023/10/08 08:37:22;;;;;;;;;;;13.20;99.90;;;;;;5031060;28;19908;-93
2023/10/08 08:39:48;;;;;;;;;;;13.30;99.90;;;;;;5026696;28;19909;-94
2023/10/08 08:42:14;;;;;;;;;;;13.40;99.90;;;;;;5048524;28;19943;-93
2023/10/08 08:44:47;;;;;;;;;;;13.60;99.90;;;;;;5043986;28;19909;-91
2023/10/08 08:47:17;;;;;;;;;;;13.70;99.90;;;;;;5052643;28;19978;-92
2023/10/08 08:49:43;;;;;;;;;;;13.80;99.90;;;;;;5056713;28;20058;-91
2023/10/08 08:52:09;;;;;;;;;;;13.90;99.90;;;;;;5052450;28;19912;-90
2023/10/08 08:54:36;;;;;;;;;;;14.30;99.90;;;;;;5053930;28;19913;-90
2023/10/08 08:57:04;;;;;;;;;;;14.20;99.90;;;;;;5034836;28;19909;-92
2023/10/08 08:59:30;;;;;;;;;;;14.30;99.90;;;;;;5053485;28;19919;-89
2023/10/08 09:01:59;;;;;;;;;;;14.50;99.90;;;;;;5054003;28;19927;-91
2023/10/08 09:04:30;;;;;;;;;;;14.70;99.90;;;;;;5049108;28;19932;-90
2023/10/08 09:06:55;;;;;;;;;;;14.80;99.90;;;;;;5028884;28;19928;-92
2023/10/08 09:09:25;;;;;;;;;;;14.90;99.90;;;;;;5052930;28;19930;-92
2023/10/08 09:11:56;;;;;;;;;;;14.70;99.90;;;;;;5046977;28;19994;-90
2023/10/08 09:14:22;;;;;;;;;;;14.60;99.90;;;;;;5034999;28;19909;-93
2023/10/08 09:16:48;;;;;;;;;;;14.60;99.90;;;;;;5047956;28;19908;-92
2023/10/08 09:19:18;;;;;;;;;;;14.60;99.90;;;;;;5031190;28;19938;-92
2023/10/08 09:21:58;;;;;;;;;;;14.90;99.90;;;;;;5048192;28;19924;-90
2023/10/08 09:24:24;;;;;;;;;;;15.50;99.90;;;;;;5042024;28;19952;-92
2023/10/08 09:26:51;;;;;;;;;;;15.70;99.90;;;;;;5046940;28;19943;-92
2023/10/08 09:29:17;;;;;;;;;;;15.80;99.90;;;;;;5048838;28;19911;-93
2023/10/08 09:31:50;;;;;;;;;;;16.00;99.90;;;;;;5038900;28;19908;-92
2023/10/08 09:34:16;;;;;;;;;;;16.20;99.90;;;;;;5037171;28;19916;-91
2023/10/08 09:36:42;;;;;;;;;;;16.30;99.90;;;;;;5043494;28;20261;-92
2023/10/08 09:39:12;;;;;;;;;;;16.40;99.90;;;;;;5044415;28;19908;-91
2023/10/08 09:41:38;;;;;;;;;;;16.90;99.90;;;;;;5039648;28;19912;-91
2023/10/08 09:44:04;;;;;;;;;;;17.20;99.90;;;;;;5037671;28;19974;-90
2023/10/08 09:46:35;;;;;;;;;;;17.40;99.90;;;;;;5044756;28;19912;-90
2023/10/08 09:49:01;;;;;;;;;;;16.40;99.90;;;;;;5052441;28;20031;-91
2023/10/08 09:51:28;;;;;;;;;;;15.70;99.90;;;;;;5042320;28;20012;-92
2023/10/08 09:53:58;;;;;;;;;;;15.50;99.90;;;;;;5049063;28;19909;-92
2023/10/08 09:56:24;;;;;;;;;;;15.60;99.90;;;;;;5033169;28;19919;-89
2023/10/08 09:58:50;;;;;;;;;;;15.10;99.90;;;;;;5054432;28;19908;-93
2023/10/08 10:01:17;;;;;;;;;;;14.60;99.90;;;;;;5053016;28;19915;-92
2023/10/08 10:03:43;;;;;;;;;;;14.40;99.90;;;;;;5028533;28;19920;-92
2023/10/08 10:06:14;;;;;;;;;;;14.80;99.90;;;;;;5035947;28;19922;-91
2023/10/08 10:08:41;;;;;;;;;;;15.60;99.90;;;;;;5051898;28;19916;-92
2023/10/08 10:11:07;;;;;;;;;;;15.60;99.90;;;;;;5051177;28;19917;-92
2023/10/08 10:13:40;;;;;;;;;;;15.40;99.90;;;;;;5042466;28;19978;-91
2023/10/08 10:16:09;;;;;;;;;;;16.60;99.90;;;;;;5047678;28;19999;-89
2023/10/08 10:18:34;;;;;;;;;;;17.30;99.90;;;;;;5047105;28;19999;-90
2023/10/08 10:21:12;;;;;;;;;;;16.80;99.90;;;;;;5019075;28;20011;-90
2023/10/08 10:23:39;;;;;;;;;;;16.50;99.90;;;;;;5048824;28;19917;-90
2023/10/08 10:26:09;;;;;;;;;;;17.40;99.90;;;;;;5052213;28;19919;-88
2023/10/08 10:28:37;;;;;;;;;;;17.40;99.90;;;;;;5036253;28;19908;-90
2023/10/08 10:31:03;;;;;;;;;;;16.70;99.90;;;;;;5040862;28;19963;-89
2023/10/08 10:33:33;;;;;;;;;;;17.00;99.90;;;;;;5034661;28;19913;-88
2023/10/08 10:36:00;;;;;;;;;;;17.50;99.90;;;;;;5045944;28;20011;-90
2023/10/08 10:38:26;;;;;;;;;;;17.80;99.90;;;;;;5050444;28;20337;-88
2023/10/08 10:40:58;;;;;;;;;;;17.40;99.90;;;;;;5051394;28;19931;-88
2023/10/08 10:43:31;;;;;;;;;;;17.00;99.90;;;;;;5051734;28;20304;-90
2023/10/08 10:45:58;;;;;;;;;;;16.50;99.90;;;;;;5048555;28;19996;-90
2023/10/08 10:48:25;;;;;;;;;;;16.10;99.90;;;;;;5031262;28;19929;-90
2023/10/08 10:53:32;;;;;;;;;;;15.20;99.90;;;;;;5051470;28;19970;-89
2023/10/08 10:56:09;;;;;;;;;;;15.00;99.90;;;;;;5050328;28;19999;-91
2023/10/08 10:58:39;;;;;;;;;;;15.00;99.90;;;;;;5053670;28;20316;-90
2023/10/08 11:01:21;;;;;;;;;;;14.90;99.90;;;;;;5039184;28;19913;-91
2023/10/08 11:03:48;;;;;;;;;;;14.90;99.90;;;;;;5026266;28;19968;-89
2023/10/08 11:06:22;;;;;;;;;;;14.80;99.90;;;;;;5035240;28;19920;-91
2023/10/08 11:08:52;;;;;;;;;;;14.90;99.90;;;;;;5044930;28;19932;-90
2023/10/08 11:11:27;;;;;;;;;;;15.10;99.90;;;;;;5031292;28;19917;-91
2023/10/08 11:13:56;;;;;;;;;;;15.20;99.90;;;;;;5034943;28;19909;-90
2023/10/08 11:16:23;;;;;;;;;;;15.10;99.90;;;;;;5031234;28;19908;-89
2023/10/08 11:18:50;;;;;;;;;;;15.10;99.90;;;;;;5043848;28;19919;-90
2023/10/08 11:21:16;;;;;;;;;;;15.20;99.90;;;;;;5022652;28;19909;-90
2023/10/08 11:23:52;;;;;;;;;;;15.20;99.90;;;;;;5043887;28;19920;-88
2023/10/08 11:26:19;;;;;;;;;;;15.40;99.90;;;;;;5018380;28;19921;-91
2023/10/08 11:28:47;;;;;;;;;;;15.40;99.90;;;;;;5014734;28;19996;-88
2023/10/08 11:31:19;;;;;;;;;;;15.40;99.90;;;;;;5029183;28;20020;-88
2023/10/08 11:33:53;;;;;;;;;;;16.00;99.90;;;;;;5034680;28;19920;-89
2023/10/08 11:36:19;;;;;;;;;;;16.20;99.90;;;;;;5034418;28;19964;-89
2023/10/08 11:38:50;;;;;;;;;;;16.30;99.90;;;;;;5026117;28;19913;-88
2023/10/08 11:41:20;;;;;;;;;;;16.20;99.90;;;;;;5041603;28;19912;-87
2023/10/08 11:43:58;;;;;;;;;;;16.10;99.90;;;;;;5020712;28;19917;-89
2023/10/08 11:46:39;;;;;;;;;;;16.40;99.90;;;;;;5049149;28;19912;-87
2023/10/08 11:49:05;;;;;;;;;;;17.30;99.90;;;;;;5039896;28;19939;-87
2023/10/08 11:51:34;;;;;;;;;;;18.20;99.90;;;;;;5015913;28;20363;-88
2023/10/08 11:54:00;;;;;;;;;;;18.30;99.90;;;;;;5028763;28;19999;-88
2023/10/08 11:56:27;;;;;;;;;;;19.30;99.90;;;;;;5037284;28;20242;-87
2023/10/08 11:58:56;;;;;;;;;;;19.30;99.90;;;;;;5039674;28;19992;-86
2023/10/08 12:01:22;;;;;;;;;;;19.70;99.90;;;;;;5039185;28;19916;-87
2023/10/08 12:03:49;;;;;;;;;;;20.60;99.90;;;;;;5043882;28;19967;-89
2023/10/08 12:06:15;;;;;;;;;;;20.00;99.90;;;;;;5037714;28;19913;-92
2023/10/08 12:08:41;;;;;;;;;;;20.00;99.90;;;;;;5044159;28;19916;-87
2023/10/08 12:11:11;;;;;;;;;;;19.30;99.90;;;;;;5038922;28;19924;-91
2023/10/08 12:13:37;;;;;;;;;;;19.10;99.90;;;;;;5037435;28;19949;-89
2023/10/08 12:16:06;;;;;;;;;;;18.30;99.90;;;;;;5015927;28;20023;-92
2023/10/08 12:18:34;;;;;;;;;;;17.30;99.90;;;;;;5044292;28;20003;-91
2023/10/08 12:21:01;;;;;;;;;;;16.60;99.90;;;;;;5034572;28;19909;-90
2023/10/08 12:23:28;;;;;;;;;;;16.30;99.90;;;;;;5034316;28;19924;-90
2023/10/08 12:25:55;;;;;;;;;;;16.20;99.90;;;;;;5040619;28;19912;-88
2023/10/08 12:28:23;;;;;;;;;;;15.90;99.90;;;;;;5042888;28;19912;-88
2023/10/08 12:30:52;;;;;;;;;;;15.90;99.90;;;;;;5044206;28;19948;-88
2023/10/08 12:33:19;;;;;;;;;;;16.10;99.90;;;;;;5042087;28;19948;-90
2023/10/08 12:35:45;;;;;;;;;;;15.80;99.90;;;;;;5047715;28;19913;-89
2023/10/08 12:38:12;;;;;;;;;;;15.80;99.90;;;;;;5046525;28;19923;-90
2023/10/08 12:40:47;;;;;;;;;;;15.90;99.90;;;;;;5048100;28;19912;-88
2023/10/08 12:43:19;;;;;;;;;;;15.90;99.90;;;;;;5026762;28;20293;-88
2023/10/08 12:45:54;;;;;;;;;;;15.90;99.90;;;;;;5047580;28;20007;-91
2023/10/08 12:48:20;;;;;;;;;;;15.60;99.90;;;;;;5027301;28;19920;-89
2023/10/08 12:50:52;;;;;;;;;;;15.60;99.90;;;;;;5025056;28;20270;-90
2023/10/08 12:53:19;;;;;;;;;;;15.30;99.90;;;;;;5040825;28;19917;-90
2023/10/08 12:55:46;;;;;;;;;;;15.20;99.90;;;;;;5042742;28;19912;-89
2023/10/08 12:58:14;;;;;;;;;;;15.20;99.90;;;;;;5054954;28;20285;-90
2023/10/08 13:00:41;;;;;;;;;;;15.10;99.90;;;;;;5037805;28;19955;-93
2023/10/08 13:03:15;;;;;;;;;;;15.00;99.90;;;;;;5051106;28;19921;-90
2023/10/08 13:05:44;;;;;;;;;;;15.00;99.90;;;;;;5042491;28;19962;-90
2023/10/08 13:08:13;;;;;;;;;;;15.00;99.90;;;;;;5027631;28;19913;-93
2023/10/08 13:10:41;;;;;;;;;;;15.00;99.90;;;;;;5024289;28;19912;-92
2023/10/08 13:13:06;;;;;;;;;;;14.90;99.90;;;;;;5040468;28;19939;-90
2023/10/08 13:15:35;;;;;;;;;;;14.80;99.90;;;;;;5042566;28;20361;-91
2023/10/08 13:18:03;;;;;;;;;;;14.90;99.90;;;;;;5030271;28;20270;-88
2023/10/08 13:20:33;;;;;;;;;;;14.80;99.90;;;;;;5038705;28;19913;-87
2023/10/08 13:23:02;;;;;;;;;;;14.70;99.90;;;;;;5034360;28;19920;-89
2023/10/08 13:25:27;;;;;;;;;;;14.60;99.90;;;;;;5025533;28;19939;-88
2023/10/08 13:27:54;;;;;;;;;;;14.70;99.90;;;;;;5039279;28;20331;-89
2023/10/08 13:30:20;;;;;;;;;;;14.50;99.90;;;;;;5012421;28;19909;-89
2023/10/08 13:32:46;;;;;;;;;;;14.60;99.90;;;;;;5037199;28;19963;-85
2023/10/08 13:35:12;;;;;;;;;;;14.60;99.90;;;;;;5031987;28;19909;-88
2023/10/08 13:37:37;;;;;;;;;;;14.60;99.90;;;;;;5051470;28;20391;-88
2023/10/08 13:40:03;;;;;;;;;;;14.40;99.90;;;;;;5040706;28;20007;-91
2023/10/08 13:42:30;;;;;;;;;;;14.40;99.90;;;;;;5052883;28;19921;-93
2023/10/08 13:44:57;;;;;;;;;;;14.30;99.90;;;;;;5032873;28;19935;-94
2023/10/08 13:47:25;;;;;;;;;;;14.30;99.90;;;;;;5057793;28;19956;-93
2023/10/08 13:49:52;;;;;;;;;;;14.20;99.90;;;;;;5055589;28;19908;-93
2023/10/08 13:52:20;;;;;;;;;;;14.20;99.90;;;;;;5035013;28;20013;-89
2023/10/08 13:54:51;;;;;;;;;;;14.30;99.90;;;;;;5026193;28;20268;-91
2023/10/08 13:57:20;;;;;;;;;;;14.30;99.90;;;;;;5050071;28;19913;-90
2023/10/08 13:59:46;;;;;;;;;;;14.20;99.90;;;;;;5024292;28;19916;-90
2023/10/08 14:02:15;;;;;;;;;;;14.30;99.90;;;;;;5024666;28;19917;-93
2023/10/08 14:04:43;;;;;;;;;;;13.90;99.90;;;;;;5044756;28;19913;-94
2023/10/08 14:07:11;;;;;;;;;;;13.80;99.90;;;;;;5049037;28;19913;-93
2023/10/08 14:09:37;;;;;;;;;;;13.90;99.90;;;;;;5048107;28;20421;-91
2023/10/08 14:12:07;;;;;;;;;;;14.00;99.90;;;;;;5028282;28;19913;-91
2023/10/08 14:14:34;;;;;;;;;;;14.00;99.90;;;;;;5048981;28;19909;-94
2023/10/08 14:17:03;;;;;;;;;;;14.00;99.90;;;;;;5054439;28;19913;-94
2023/10/08 14:19:36;;;;;;;;;;;14.00;99.90;;;;;;5036820;28;19915;-94
2023/10/08 14:22:08;;;;;;;;;;;13.90;99.90;;;;;;5044192;28;19940;-91
2023/10/08 14:24:37;;;;;;;;;;;13.80;99.90;;;;;;5051541;28;19913;-90
2023/10/08 14:27:09;;;;;;;;;;;13.80;99.90;;;;;;5053965;28;19912;-91
2023/10/08 14:29:44;;;;;;;;;;;13.70;99.90;;;;;;5037534;28;19920;-91
2023/10/08 14:32:10;;;;;;;;;;;13.70;99.90;;;;;;5037527;28;19955;-93
2023/10/08 14:42:57;;;;;;;;;;;13.40;99.90;;;;;;5047690;28;19963;-92
2023/10/08 14:45:26;;;;;;;;;;;13.50;99.90;;;;;;5027900;28;19971;-90
2023/10/08 14:47:53;;;;;;;;;;;13.30;99.90;;;;;;5043505;28;19988;-91
2023/10/08 14:50:18;;;;;;;;;;;13.30;99.90;;;;;;5042805;28;19929;-91
2023/10/08 14:52:44;;;;;;;;;;;13.20;99.90;;;;;;5017049;28;19912;-89
2023/10/08 14:55:12;;;;;;;;;;;13.00;99.90;;;;;;5040142;28;19920;-89
2023/10/08 14:57:38;;;;;;;;;;;13.00;99.90;;;;;;5039516;28;19995;-89
2023/10/08 15:00:05;;;;;;;;;;;13.10;99.90;;;;;;5031885;28;20640;-91
2023/10/08 15:02:30;;;;;;;;;;;13.10;99.90;;;;;;5046395;28;19916;-89
2023/10/08 15:04:57;;;;;;;;;;;13.10;99.90;;;;;;5048915;28;20390;-88
2023/10/08 15:07:23;;;;;;;;;;;13.00;99.90;;;;;;5048576;28;20011;-89
2023/10/08 15:09:49;;;;;;;;;;;13.00;99.90;;;;;;5047346;28;20016;-88
2023/10/08 15:12:17;;;;;;;;;;;13.10;99.90;;;;;;5041766;28;20003;-89
2023/10/08 15:14:43;;;;;;;;;;;13.00;99.90;;;;;;5044040;28;19909;-88
2023/10/08 15:17:09;;;;;;;;;;;12.90;99.90;;;;;;5029698;28;20288;-87
2023/10/08 15:19:35;;;;;;;;;;;12.90;99.90;;;;;;5048079;28;19952;-88
2023/10/08 15:22:01;;;;;;;;;;;12.80;99.90;;;;;;5048294;28;20411;-89
2023/10/08 15:24:26;;;;;;;;;;;12.80;99.90;;;;;;5048005;28;19955;-90
2023/10/08 15:26:55;;;;;;;;;;;12.80;99.90;;;;;;5047232;28;20428;-89
2023/10/08 15:29:21;;;;;;;;;;;12.70;99.90;;;;;;5047685;28;19913;-90
2023/10/08 15:31:46;;;;;;;;;;;12.70;99.90;;;;;;5048161;28;19931;-92
2023/10/08 15:34:12;;;;;;;;;;;12.60;99.90;;;;;;5049374;28;19949;-92
2023/10/08 15:36:38;;;;;;;;;;;12.60;99.90;;;;;;5029296;28;20267;-89
2023/10/08 15:39:04;;;;;;;;;;;12.60;99.90;;;;;;5031976;28;19916;-92